createdAt,value
2022-09-01T00:01:29.359Z,15.53
2022-09-01T00:03:59.808Z,15.53
2022-09-01T00:06:26.519Z,15.48
2022-09-01T00:08:56.412Z,15.46
2022-09-01T00:11:25.996Z,15.45
2022-09-01T00:13:54.272Z,15.42
2022-09-01T00:16:21.566Z,15.40
2022-09-01T00:18:52.058Z,15.39
2022-09-01T00:21:23.696Z,15.35
2022-09-01T00:23:50.444Z,15.32
2022-09-01T00:26:17.325Z,15.29
2022-09-01T00:28:44.171Z,15.28
2022-09-01T00:31:11.997Z,15.26
2022-09-01T00:33:39.113Z,15.24
2022-09-01T00:36:05.886Z,15.22
2022-09-01T00:38:33.879Z,15.20
2022-09-01T00:41:01.577Z,15.18
2022-09-01T00:43:50.935Z,15.08
2022-09-01T00:46:22.640Z,15.13
2022-09-01T00:48:55.878Z,15.09
2022-09-01T00:51:23.820Z,15.08
2022-09-01T00:53:50.455Z,15.07
2022-09-01T00:56:17.186Z,15.06
2022-09-01T00:58:43.880Z,15.04
2022-09-01T01:01:12.408Z,15.04
2022-09-01T01:03:42.421Z,15.03
2022-09-01T01:06:09.736Z,15.04
2022-09-01T01:08:40.128Z,15.05
2022-09-01T01:11:11.470Z,15.04
2022-09-01T01:13:59.812Z,14.97
2022-09-01T01:16:29.582Z,15.01
2022-09-01T01:18:56.248Z,14.80
2022-09-01T01:21:46.881Z,14.93
2022-09-01T01:24:34.616Z,14.84
2022-09-01T01:27:01.574Z,14.90
2022-09-01T01:29:33.319Z,14.90
2022-09-01T01:32:02.688Z,14.89
2022-09-01T01:34:29.223Z,14.88
2022-09-01T01:36:59.911Z,14.88
2022-09-01T01:39:26.828Z,14.87
2022-09-01T01:41:55.193Z,14.86
2022-09-01T01:44:28.221Z,14.85
2022-09-01T01:46:55.988Z,14.84
2022-09-01T01:49:26.030Z,14.84
2022-09-01T01:51:56.243Z,14.83
2022-09-01T01:54:24.034Z,14.80
2022-09-01T01:56:50.778Z,14.77
2022-09-01T01:59:18.031Z,14.76
2022-09-01T02:01:51.432Z,14.75
2022-09-01T02:04:19.995Z,14.74
2022-09-01T02:06:47.908Z,14.74
2022-09-01T02:09:16.796Z,14.73
2022-09-01T02:11:44.722Z,14.71
2022-09-01T02:14:13.050Z,14.71
2022-09-01T02:16:40.246Z,14.70
2022-09-01T02:19:10.033Z,14.70
2022-09-01T02:21:36.549Z,14.50
2022-09-01T02:24:08.430Z,14.63
2022-09-01T02:26:39.620Z,14.64
2022-09-01T02:29:17.981Z,14.65
2022-09-01T02:31:47.129Z,14.62
2022-09-01T02:34:14.312Z,14.61
2022-09-01T02:36:47.645Z,14.61
2022-09-01T02:39:16.231Z,14.60
2022-09-01T02:41:43.505Z,14.58
2022-09-01T02:44:14.826Z,14.57
2022-09-01T02:46:43.364Z,14.58
2022-09-01T02:49:17.562Z,14.56
2022-09-01T02:51:46.897Z,14.55
2022-09-01T02:54:17.598Z,14.53
2022-09-01T02:56:48.043Z,14.53
2022-09-01T02:59:16.654Z,14.52
2022-09-01T03:01:46.935Z,14.50
2022-09-01T03:04:14.514Z,14.49
2022-09-01T03:06:42.185Z,14.47
2022-09-01T03:09:14.679Z,14.47
2022-09-01T03:11:43.475Z,14.44
2022-09-01T03:14:10.461Z,14.43
2022-09-01T03:16:38.180Z,14.42
2022-09-01T03:19:09.037Z,14.39
2022-09-01T03:21:37.873Z,14.40
2022-09-01T03:24:04.533Z,14.38
2022-09-01T03:26:31.749Z,14.37
2022-09-01T03:28:59.202Z,14.36
2022-09-01T03:31:30.923Z,14.35
2022-09-01T03:33:58.613Z,14.34
2022-09-01T03:36:27.764Z,14.33
2022-09-01T03:38:55.924Z,14.31
2022-09-01T03:41:26.203Z,14.32
2022-09-01T03:43:55.109Z,14.29
2022-09-01T03:46:22.723Z,14.31
2022-09-01T03:48:52.615Z,14.30
2022-09-01T03:51:22.886Z,14.28
2022-09-01T03:53:54.584Z,14.27
2022-09-01T03:56:24.186Z,14.26
2022-09-01T03:58:52.135Z,14.25
2022-09-01T04:01:19.861Z,14.22
2022-09-01T04:03:48.905Z,14.22
2022-09-01T04:06:19.377Z,14.21
2022-09-01T04:08:47.290Z,14.19
2022-09-01T04:11:19.063Z,14.19
2022-09-01T04:13:47.421Z,14.17
2022-09-01T04:16:40.294Z,14.15
2022-09-01T04:19:16.121Z,14.13
2022-09-01T04:21:44.890Z,14.12
2022-09-01T04:24:14.898Z,14.12
2022-09-01T04:26:42.675Z,14.11
2022-09-01T04:29:11.733Z,14.11
2022-09-01T04:31:40.170Z,14.09
2022-09-01T04:34:13.252Z,14.09
2022-09-01T04:36:43.686Z,14.09
2022-09-01T04:39:12.422Z,14.10
2022-09-01T04:41:43.131Z,14.11
2022-09-01T04:44:09.893Z,14.11
2022-09-01T04:46:42.478Z,14.12
2022-09-01T04:49:12.978Z,14.12
2022-09-01T04:51:43.853Z,14.11
2022-09-01T04:54:14.255Z,14.11
2022-09-01T04:56:43.548Z,14.10
2022-09-01T04:59:12.117Z,14.09
2022-09-01T05:01:43.638Z,14.08
2022-09-01T05:04:14.513Z,14.08
2022-09-01T05:06:43.195Z,14.08
2022-09-01T05:09:11.916Z,14.08
2022-09-01T05:11:41.324Z,14.09
2022-09-01T05:14:08.093Z,14.08
2022-09-01T05:16:36.192Z,14.09
2022-09-01T05:19:02.996Z,14.09
2022-09-01T05:21:29.864Z,14.09
2022-09-01T05:24:00.749Z,14.10
2022-09-01T05:26:31.560Z,14.11
2022-09-01T05:29:01.724Z,14.13
2022-09-01T05:31:34.895Z,14.12
2022-09-01T05:34:03.308Z,14.14
2022-09-01T05:36:33.755Z,14.17
2022-09-01T05:39:01.901Z,14.18
2022-09-01T05:41:28.639Z,14.20
2022-09-01T05:43:59.939Z,14.22
2022-09-01T05:46:28.374Z,14.22
2022-09-01T05:48:56.846Z,14.27
2022-09-01T05:51:44.432Z,14.31
2022-09-01T05:54:12.832Z,14.17
2022-09-01T05:56:43.552Z,14.32
2022-09-01T05:59:27.765Z,14.39
2022-09-01T06:01:55.679Z,14.42
2022-09-01T06:04:23.250Z,14.47
2022-09-01T06:07:08.559Z,14.52
2022-09-01T06:09:38.667Z,14.56
2022-09-01T06:12:06.742Z,14.62
2022-09-01T06:14:34.122Z,14.65
2022-09-01T06:17:01.079Z,14.72
2022-09-01T06:19:28.765Z,14.77
2022-09-01T06:21:56.887Z,14.81
2022-09-01T06:24:23.641Z,14.89
2022-09-01T06:26:50.557Z,14.94
2022-09-01T06:29:17.248Z,15.00
2022-09-01T06:31:51.773Z,15.06
2022-09-01T06:34:19.649Z,15.12
2022-09-01T06:36:48.572Z,15.19
2022-09-01T06:39:19.905Z,15.25
2022-09-01T06:41:49.501Z,15.33
2022-09-01T06:44:16.182Z,15.41
2022-09-01T06:46:42.915Z,15.48
2022-09-01T06:49:11.641Z,15.56
2022-09-01T06:51:38.417Z,15.63
2022-09-01T06:54:10.833Z,15.72
2022-09-01T06:59:34.674Z,16.26
2022-09-01T07:02:04.857Z,16.41
2022-09-01T07:04:32.564Z,16.72
2022-09-01T07:07:53.026Z,17.30
2022-09-01T07:09:54.967Z,18.05
2022-09-01T07:12:34.334Z,18.46
2022-09-01T07:17:52.187Z,19.61
2022-09-01T07:20:24.619Z,19.96
2022-09-01T07:23:08.672Z,19.99
2022-09-01T07:28:37.611Z,20.25
2022-09-01T07:33:55.658Z,20.57
2022-09-01T07:42:57.175Z,15.96
2022-09-01T07:47:56.419Z,22.16
2022-09-01T07:53:18.451Z,22.38
2022-09-01T07:55:47.283Z,22.55
2022-09-01T07:58:14.284Z,22.81
2022-09-01T08:00:45.144Z,23.00
2022-09-01T08:03:12.880Z,23.11
2022-09-01T08:05:39.601Z,23.31
2022-09-01T08:08:18.663Z,23.39
2022-09-01T08:10:49.077Z,23.44
2022-09-01T08:13:17.240Z,23.42
2022-09-01T08:18:48.076Z,23.61
2022-09-01T08:21:16.575Z,23.68
2022-09-01T08:23:44.232Z,23.75
2022-09-01T08:26:13.852Z,23.84
2022-09-01T08:28:45.939Z,24.05
2022-09-01T08:31:16.091Z,24.13
2022-09-01T08:33:43.715Z,24.26
2022-09-01T08:36:12.989Z,24.29
2022-09-01T08:38:40.496Z,24.36
2022-09-01T08:41:28.786Z,24.57
2022-09-01T08:44:30.768Z,24.77
2022-09-01T08:47:05.830Z,25.03
2022-09-01T08:49:44.358Z,25.23
2022-09-01T08:52:30.558Z,25.34
2022-09-01T08:55:06.064Z,25.37
2022-09-01T08:57:37.101Z,25.42
2022-09-01T09:00:10.003Z,25.51
2022-09-01T09:13:39.442Z,25.91
2022-09-01T09:16:13.315Z,25.99
2022-09-01T09:21:22.933Z,26.29
2022-09-01T09:23:59.174Z,26.33
2022-09-01T09:26:25.993Z,26.22
2022-09-01T09:28:55.167Z,26.21
2022-09-01T09:31:45.805Z,26.39
2022-09-01T09:37:31.019Z,26.62
2022-09-01T09:40:15.353Z,26.74
2022-09-01T09:43:03.183Z,26.75
2022-09-01T09:45:34.666Z,26.73
2022-09-01T09:48:07.672Z,26.81
2022-09-01T09:50:40.885Z,26.76
2022-09-01T09:58:39.554Z,26.48
2022-09-01T10:03:49.058Z,26.29
2022-09-01T10:06:33.596Z,26.28
2022-09-01T10:09:04.156Z,26.31
2022-09-01T10:17:19.168Z,26.33
2022-09-01T10:19:54.342Z,26.51
2022-09-01T10:22:21.728Z,26.56
2022-09-01T10:24:50.344Z,26.61
2022-09-01T10:27:23.422Z,26.65
2022-09-01T10:30:12.587Z,26.71
2022-09-01T10:32:52.451Z,26.59
2022-09-01T10:38:08.044Z,26.14
2022-09-01T10:43:58.728Z,25.98
2022-09-01T10:49:18.396Z,25.84
2022-09-01T10:51:56.532Z,25.73
2022-09-01T11:02:42.084Z,25.95
2022-09-01T11:05:15.707Z,25.93
2022-09-01T11:08:01.691Z,25.93
2022-09-01T11:13:36.564Z,25.89
2022-09-01T11:19:33.026Z,25.87
2022-09-01T11:22:12.867Z,25.98
2022-09-01T11:35:47.098Z,26.34
2022-09-01T11:38:16.401Z,26.30
2022-09-01T11:40:43.448Z,26.40
2022-09-01T11:43:16.650Z,26.44
2022-09-01T11:45:59.532Z,26.38
2022-09-01T11:48:27.000Z,26.27
2022-09-01T11:51:01.111Z,26.27
2022-09-01T11:53:28.686Z,26.21
2022-09-01T11:56:11.297Z,26.03
2022-09-01T11:58:39.495Z,25.94
2022-09-01T12:01:36.024Z,25.93
2022-09-01T12:04:30.353Z,25.96
2022-09-01T12:07:01.855Z,25.92
2022-09-01T12:09:36.370Z,25.87
2022-09-01T12:12:05.481Z,25.87
2022-09-01T12:14:48.863Z,26.00
2022-09-01T12:17:20.721Z,26.13
2022-09-01T12:19:47.345Z,26.13
2022-09-01T12:22:20.145Z,26.02
2022-09-01T12:24:49.707Z,25.93
2022-09-01T12:27:16.796Z,25.92
2022-09-01T12:29:44.193Z,25.93
2022-09-01T12:32:12.476Z,25.91
2022-09-01T12:37:22.904Z,25.90
2022-09-01T12:39:52.637Z,25.97
2022-09-01T12:52:54.767Z,26.12
2022-09-01T12:58:00.176Z,26.02
2022-09-01T13:00:30.346Z,26.00
2022-09-01T13:03:17.911Z,25.89
2022-09-01T13:05:47.218Z,25.90
2022-09-01T13:08:16.558Z,25.66
2022-09-01T13:10:46.590Z,25.72
2022-09-01T13:13:14.705Z,25.71
2022-09-01T13:15:48.308Z,25.70
2022-09-01T13:18:15.532Z,25.67
2022-09-01T13:20:42.295Z,25.63
2022-09-01T13:23:10.106Z,25.60
2022-09-01T13:25:36.721Z,25.57
2022-09-01T13:28:03.881Z,25.63
2022-09-01T13:30:30.521Z,25.71
2022-09-01T13:35:44.391Z,25.87
2022-09-01T13:38:11.218Z,25.86
2022-09-01T13:40:37.859Z,25.87
2022-09-01T13:43:06.191Z,25.86
2022-09-01T13:45:33.700Z,25.93
2022-09-01T13:48:16.650Z,25.97
2022-09-01T13:53:33.415Z,25.96
2022-09-01T13:56:00.286Z,25.89
2022-09-01T13:58:27.053Z,25.75
2022-09-01T14:00:53.713Z,25.61
2022-09-01T14:03:23.271Z,25.52
2022-09-01T14:05:49.986Z,25.53
2022-09-01T14:08:20.086Z,25.62
2022-09-01T14:10:50.943Z,25.70
2022-09-01T14:13:19.774Z,25.70
2022-09-01T14:15:47.157Z,25.73
2022-09-01T14:18:15.555Z,25.73
2022-09-01T14:20:45.180Z,25.72
2022-09-01T14:23:13.531Z,25.73
2022-09-01T14:25:46.623Z,25.69
2022-09-01T14:28:13.696Z,25.64
2022-09-01T14:30:43.477Z,25.63
2022-09-01T14:33:10.332Z,25.58
2022-09-01T14:35:41.386Z,25.54
2022-09-01T14:38:08.879Z,25.54
2022-09-01T14:40:38.114Z,25.47
2022-09-01T14:43:05.717Z,25.20
2022-09-01T14:45:32.937Z,25.30
2022-09-01T14:48:01.095Z,25.30
2022-09-01T14:50:32.102Z,25.31
2022-09-01T14:53:00.766Z,25.37
2022-09-01T14:55:30.269Z,25.45
2022-09-01T14:57:57.409Z,25.48
2022-09-01T15:00:25.862Z,25.45
2022-09-01T15:02:54.647Z,25.41
2022-09-01T15:05:22.295Z,25.39
2022-09-01T15:07:49.290Z,25.35
2022-09-01T15:10:24.935Z,25.28
2022-09-01T15:12:53.787Z,25.23
2022-09-01T15:15:21.326Z,25.18
2022-09-01T15:17:48.015Z,25.10
2022-09-01T15:20:34.723Z,25.07
2022-09-01T15:23:04.461Z,25.02
2022-09-01T15:25:31.281Z,24.96
2022-09-01T15:27:57.970Z,24.94
2022-09-01T15:30:24.776Z,24.97
2022-09-01T15:32:53.174Z,24.94
2022-09-01T15:35:21.341Z,24.90
2022-09-01T15:37:49.503Z,24.87
2022-09-01T15:40:16.933Z,24.87
2022-09-01T15:42:44.462Z,24.77
2022-09-01T15:45:15.893Z,24.73
2022-09-01T15:47:45.689Z,24.68
2022-09-01T15:50:21.081Z,24.63
2022-09-01T15:52:57.625Z,24.47
2022-09-01T15:55:28.431Z,24.45
2022-09-01T15:57:55.479Z,24.41
2022-09-01T16:00:25.547Z,24.36
2022-09-01T16:02:54.567Z,24.35
2022-09-01T16:05:21.478Z,24.31
2022-09-01T16:07:48.071Z,24.33
2022-09-01T16:10:14.806Z,24.32
2022-09-01T16:12:44.023Z,24.34
2022-09-01T16:15:12.919Z,24.10
2022-09-01T16:20:27.337Z,24.12
2022-09-01T16:22:58.488Z,24.06
2022-09-01T16:25:30.681Z,23.98
2022-09-01T16:28:01.807Z,23.89
2022-09-01T16:30:29.597Z,23.83
2022-09-01T16:32:59.126Z,23.77
2022-09-01T16:35:44.865Z,23.68
2022-09-01T16:41:43.124Z,23.60
2022-09-01T16:52:29.476Z,23.35
2022-09-01T16:55:23.741Z,23.27
2022-09-01T16:58:21.499Z,23.25
2022-09-01T17:03:42.598Z,23.23
2022-09-01T17:06:23.557Z,23.14
2022-09-01T17:08:56.388Z,23.14
2022-09-01T17:11:33.470Z,23.13
2022-09-01T17:14:02.838Z,23.08
2022-09-01T17:16:37.074Z,22.91
2022-09-01T17:19:07.991Z,23.01
2022-09-01T17:21:48.986Z,22.92
2022-09-01T17:26:56.733Z,22.89
2022-09-01T17:29:29.216Z,22.80
2022-09-01T18:12:17.441Z,22.02
2022-09-01T18:28:00.260Z,21.69
2022-09-01T18:30:43.093Z,21.54
2022-09-01T18:36:16.812Z,21.32
2022-09-01T18:41:50.742Z,21.13
2022-09-01T18:47:03.570Z,21.04
2022-09-01T18:52:21.930Z,20.98
2022-09-01T18:57:37.441Z,20.88
2022-09-01T19:03:07.367Z,20.76
2022-09-01T19:08:58.392Z,20.66
2022-09-01T19:19:46.889Z,20.71
2022-09-01T19:22:20.162Z,20.68
2022-09-01T19:24:53.666Z,20.64
2022-09-01T19:27:29.105Z,20.59
2022-09-01T19:30:01.569Z,20.55
2022-09-01T19:32:31.290Z,20.53
2022-09-01T19:35:07.954Z,20.52
2022-09-01T19:37:34.744Z,20.51
2022-09-01T19:40:01.568Z,20.48
2022-09-01T19:53:05.748Z,20.32
2022-09-01T19:58:16.579Z,20.27
2022-09-01T20:06:05.784Z,20.59
2022-09-01T20:11:19.000Z,20.23
2022-09-01T20:14:25.479Z,20.11
2022-09-01T20:19:36.992Z,20.08
2022-09-01T20:25:08.492Z,19.95
2022-09-01T20:27:50.536Z,19.93
2022-09-01T20:30:21.987Z,19.91
2022-09-01T20:33:05.094Z,19.88
2022-09-01T20:35:39.984Z,19.85
2022-09-01T20:38:39.535Z,19.80
2022-09-01T20:41:19.075Z,19.80
2022-09-01T20:43:51.791Z,19.77
2022-09-01T20:46:20.163Z,19.74
2022-09-01T20:48:48.134Z,19.74
2022-09-01T20:51:36.697Z,19.65
2022-09-01T21:00:00.932Z,19.55
2022-09-01T21:20:11.497Z,19.44
2022-09-01T21:22:38.276Z,19.42
2022-09-01T21:25:05.597Z,19.40
2022-09-01T21:27:38.649Z,19.39
2022-09-01T21:30:09.410Z,19.35
2022-09-01T21:32:36.836Z,19.28
2022-09-01T21:35:05.342Z,19.23
2022-09-01T21:37:32.164Z,19.20
2022-09-01T21:39:58.829Z,19.16
2022-09-01T21:42:34.599Z,19.12
2022-09-01T21:45:03.032Z,19.11
2022-09-01T21:47:32.412Z,19.08
2022-09-01T21:49:59.086Z,19.05
2022-09-01T21:52:25.705Z,18.99
2022-09-01T21:54:52.269Z,18.96
2022-09-01T21:57:20.930Z,18.94
2022-09-01T21:59:47.562Z,18.93
2022-09-01T22:02:15.238Z,18.90
2022-09-01T22:04:41.892Z,18.89
2022-09-01T22:07:15.261Z,18.88
2022-09-01T22:09:43.578Z,18.87
2022-09-01T22:12:10.413Z,18.82
2022-09-01T22:14:37.106Z,18.79
2022-09-01T22:17:04.585Z,18.77
2022-09-01T22:19:34.925Z,18.73
2022-09-01T22:22:02.365Z,18.68
2022-09-01T22:24:29.140Z,18.66
2022-09-01T22:26:55.749Z,18.65
2022-09-01T22:29:22.729Z,18.62
2022-09-01T22:31:49.940Z,18.61
2022-09-01T22:34:16.830Z,18.61
2022-09-01T22:36:47.578Z,18.59
2022-09-01T22:39:15.515Z,18.57
2022-09-01T22:41:42.617Z,18.57
2022-09-01T22:44:10.375Z,18.57
2022-09-01T22:46:39.071Z,18.55
2022-09-01T22:49:06.803Z,18.53
2022-09-01T22:51:34.709Z,18.50
2022-09-01T22:54:01.680Z,18.50
2022-09-01T22:56:32.346Z,18.45
2022-09-01T22:59:02.560Z,18.46
2022-09-01T23:01:33.285Z,18.45
2022-09-01T23:04:02.007Z,18.44
2022-09-01T23:06:30.132Z,18.43
2022-09-01T23:08:58.583Z,18.41
2022-09-01T23:11:26.551Z,18.39
2022-09-01T23:13:54.369Z,18.36
2022-09-01T23:16:22.536Z,18.33
2022-09-01T23:18:50.377Z,18.31
2022-09-01T23:21:21.123Z,18.27
2022-09-01T23:23:48.189Z,18.25
2022-09-01T23:26:22.169Z,18.26
2022-09-01T23:28:49.410Z,18.24
2022-09-01T23:31:19.569Z,18.23
2022-09-01T23:33:46.914Z,18.22
2022-09-01T23:36:16.121Z,18.22
2022-09-01T23:38:42.864Z,18.20
2022-09-01T23:41:12.253Z,18.20
2022-09-01T23:43:39.025Z,18.18
2022-09-01T23:46:07.329Z,18.17
2022-09-01T23:48:34.948Z,18.16
2022-09-01T23:51:08.681Z,18.13
2022-09-01T23:53:37.001Z,18.10
2022-09-01T23:56:08.989Z,18.10
2022-09-01T23:58:35.730Z,18.05
